sensor_id;sensor_type;location;lat;lon;timestamp;P1;durP1;ratioP1;P2;durP2;ratioP2
23496;SDS011;11925;48.122;11.560;2023-04-24T00:00:04;17.60;;;8.32;;
23496;SDS011;11925;48.122;11.560;2023-04-24T00:02:35;13.30;;;6.40;;
23496;SDS011;11925;48.122;11.560;2023-04-24T00:05:05;11.20;;;5.03;;
23496;SDS011;11925;48.122;11.560;2023-04-24T00:07:35;9.45;;;4.15;;
23496;SDS011;11925;48.122;11.560;2023-04-24T00:10:04;7.60;;;3.10;;
23496;SDS011;11925;48.122;11.560;2023-04-24T00:12:35;6.10;;;2.92;;
23496;SDS011;11925;48.122;11.560;2023-04-24T00:15:04;4.78;;;2.58;;
23496;SDS011;11925;48.122;11.560;2023-04-24T00:17:33;5.45;;;2.20;;
23496;SDS011;11925;48.122;11.560;2023-04-24T00:20:01;4.65;;;2.30;;
23496;SDS011;11925;48.122;11.560;2023-04-24T00:22:31;4.25;;;1.60;;
23496;SDS011;11925;48.122;11.560;2023-04-24T00:24:59;5.13;;;1.50;;
23496;SDS011;11925;48.122;11.560;2023-04-24T00:27:29;2.50;;;1.02;;
23496;SDS011;11925;48.122;11.560;2023-04-24T00:29:57;4.78;;;1.40;;
23496;SDS011;11925;48.122;11.560;2023-04-24T00:32:25;4.20;;;1.30;;
23496;SDS011;11925;48.122;11.560;2023-04-24T00:34:54;3.47;;;0.95;;
23496;SDS011;11925;48.122;11.560;2023-04-24T00:37:22;2.15;;;0.90;;
23496;SDS011;11925;48.122;11.560;2023-04-24T00:39:51;2.42;;;0.98;;
23496;SDS011;11925;48.122;11.560;2023-04-24T00:42:19;2.08;;;0.90;;
23496;SDS011;11925;48.122;11.560;2023-04-24T00:44:49;1.85;;;0.77;;
23496;SDS011;11925;48.122;11.560;2023-04-24T00:47:19;1.65;;;0.73;;
23496;SDS011;11925;48.122;11.560;2023-04-24T00:49:48;2.05;;;0.85;;
23496;SDS011;11925;48.122;11.560;2023-04-24T00:52:17;1.55;;;0.65;;
23496;SDS011;11925;48.122;11.560;2023-04-24T00:54:47;2.35;;;0.60;;
23496;SDS011;11925;48.122;11.560;2023-04-24T00:57:15;0.90;;;0.50;;
23496;SDS011;11925;48.122;11.560;2023-04-24T00:59:44;0.88;;;0.50;;
23496;SDS011;11925;48.122;11.560;2023-04-24T01:02:15;2.03;;;0.40;;
23496;SDS011;11925;48.122;11.560;2023-04-24T01:04:44;2.10;;;0.43;;
23496;SDS011;11925;48.122;11.560;2023-04-24T01:07:12;1.60;;;0.50;;
23496;SDS011;11925;48.122;11.560;2023-04-24T01:09:40;1.50;;;0.52;;
23496;SDS011;11925;48.122;11.560;2023-04-24T01:12:09;1.17;;;0.38;;
23496;SDS011;11925;48.122;11.560;2023-04-24T01:14:37;1.40;;;0.50;;
23496;SDS011;11925;48.122;11.560;2023-04-24T01:17:07;3.90;;;0.47;;
23496;SDS011;11925;48.122;11.560;2023-04-24T01:19:37;0.82;;;0.20;;
23496;SDS011;11925;48.122;11.560;2023-04-24T01:22:10;2.85;;;0.38;;
23496;SDS011;11925;48.122;11.560;2023-04-24T01:24:38;0.63;;;0.40;;
23496;SDS011;11925;48.122;11.560;2023-04-24T01:27:07;0.95;;;0.30;;
23496;SDS011;11925;48.122;11.560;2023-04-24T01:29:37;0.50;;;0.30;;
23496;SDS011;11925;48.122;11.560;2023-04-24T01:32:05;0.77;;;0.40;;
23496;SDS011;11925;48.122;11.560;2023-04-24T01:34:34;0.65;;;0.30;;
23496;SDS011;11925;48.122;11.560;2023-04-24T01:37:02;0.40;;;0.30;;
23496;SDS011;11925;48.122;11.560;2023-04-24T01:39:33;0.70;;;0.40;;
23496;SDS011;11925;48.122;11.560;2023-04-24T01:42:01;1.63;;;0.22;;
23496;SDS011;11925;48.122;11.560;2023-04-24T01:44:29;1.45;;;0.52;;
23496;SDS011;11925;48.122;11.560;2023-04-24T01:46:59;0.57;;;0.30;;
23496;SDS011;11925;48.122;11.560;2023-04-24T01:49:29;1.40;;;0.40;;
23496;SDS011;11925;48.122;11.560;2023-04-24T01:51:57;1.63;;;0.30;;
23496;SDS011;11925;48.122;11.560;2023-04-24T01:54:29;0.73;;;0.30;;
23496;SDS011;11925;48.122;11.560;2023-04-24T01:56:59;0.55;;;0.30;;
23496;SDS011;11925;48.122;11.560;2023-04-24T01:59:29;1.45;;;0.20;;
23496;SDS011;11925;48.122;11.560;2023-04-24T02:01:59;0.50;;;0.20;;
23496;SDS011;11925;48.122;11.560;2023-04-24T02:04:27;0.30;;;0.30;;
23496;SDS011;11925;48.122;11.560;2023-04-24T02:06:56;0.63;;;0.38;;
23496;SDS011;11925;48.122;11.560;2023-04-24T02:09:24;0.47;;;0.30;;
23496;SDS011;11925;48.122;11.560;2023-04-24T02:11:52;0.52;;;0.30;;
23496;SDS011;11925;48.122;11.560;2023-04-24T02:14:22;0.55;;;0.20;;
23496;SDS011;11925;48.122;11.560;2023-04-24T02:16:50;0.55;;;0.30;;
23496;SDS011;11925;48.122;11.560;2023-04-24T02:19:19;0.75;;;0.30;;
23496;SDS011;11925;48.122;11.560;2023-04-24T02:21:49;1.25;;;0.50;;
23496;SDS011;11925;48.122;11.560;2023-04-24T02:24:18;0.82;;;0.43;;
23496;SDS011;11925;48.122;11.560;2023-04-24T02:26:46;0.50;;;0.30;;
23496;SDS011;11925;48.122;11.560;2023-04-24T02:29:14;1.75;;;0.30;;
23496;SDS011;11925;48.122;11.560;2023-04-24T02:31:44;1.40;;;0.30;;
23496;SDS011;11925;48.122;11.560;2023-04-24T02:34:13;0.90;;;0.30;;
23496;SDS011;11925;48.122;11.560;2023-04-24T02:36:42;1.45;;;0.30;;
23496;SDS011;11925;48.122;11.560;2023-04-24T02:39:11;0.40;;;0.30;;
23496;SDS011;11925;48.122;11.560;2023-04-24T02:41:39;0.93;;;0.40;;
23496;SDS011;11925;48.122;11.560;2023-04-24T02:44:08;0.50;;;0.38;;
23496;SDS011;11925;48.122;11.560;2023-04-24T02:46:36;1.17;;;0.20;;
23496;SDS011;11925;48.122;11.560;2023-04-24T02:49:06;1.02;;;0.30;;
23496;SDS011;11925;48.122;11.560;2023-04-24T02:51:34;0.47;;;0.22;;
23496;SDS011;11925;48.122;11.560;2023-04-24T02:54:07;0.60;;;0.30;;
23496;SDS011;11925;48.122;11.560;2023-04-24T02:56:36;0.82;;;0.30;;
23496;SDS011;11925;48.122;11.560;2023-04-24T02:59:06;0.60;;;0.22;;
23496;SDS011;11925;48.122;11.560;2023-04-24T03:01:34;0.47;;;0.10;;
23496;SDS011;11925;48.122;11.560;2023-04-24T03:04:03;0.60;;;0.30;;
23496;SDS011;11925;48.122;11.560;2023-04-24T03:06:33;0.63;;;0.30;;
23496;SDS011;11925;48.122;11.560;2023-04-24T03:09:02;0.68;;;0.30;;
23496;SDS011;11925;48.122;11.560;2023-04-24T03:11:31;0.82;;;0.30;;
23496;SDS011;11925;48.122;11.560;2023-04-24T03:13:59;1.40;;;0.32;;
23496;SDS011;11925;48.122;11.560;2023-04-24T03:16:28;1.40;;;0.30;;
23496;SDS011;11925;48.122;11.560;2023-04-24T03:18:56;0.30;;;0.30;;
23496;SDS011;11925;48.122;11.560;2023-04-24T03:23:58;0.65;;;0.25;;
23496;SDS011;11925;48.122;11.560;2023-04-24T03:26:27;1.10;;;0.30;;
23496;SDS011;11925;48.122;11.560;2023-04-24T03:29:13;1.48;;;0.20;;
23496;SDS011;11925;48.122;11.560;2023-04-24T03:31:42;2.72;;;0.40;;
23496;SDS011;11925;48.122;11.560;2023-04-24T03:34:10;0.60;;;0.22;;
23496;SDS011;11925;48.122;11.560;2023-04-24T03:36:39;0.68;;;0.30;;
23496;SDS011;11925;48.122;11.560;2023-04-24T03:39:09;0.75;;;0.30;;
23496;SDS011;11925;48.122;11.560;2023-04-24T03:41:44;1.65;;;0.30;;
23496;SDS011;11925;48.122;11.560;2023-04-24T03:44:17;1.50;;;0.40;;
23496;SDS011;11925;48.122;11.560;2023-04-24T03:46:45;0.55;;;0.32;;
23496;SDS011;11925;48.122;11.560;2023-04-24T03:49:14;2.22;;;0.40;;
23496;SDS011;11925;48.122;11.560;2023-04-24T03:51:45;0.60;;;0.30;;
23496;SDS011;11925;48.122;11.560;2023-04-24T03:54:21;0.60;;;0.20;;
23496;SDS011;11925;48.122;11.560;2023-04-24T03:56:51;1.10;;;0.38;;
23496;SDS011;11925;48.122;11.560;2023-04-24T03:59:19;1.20;;;0.30;;
23496;SDS011;11925;48.122;11.560;2023-04-24T04:02:00;0.87;;;0.30;;
23496;SDS011;11925;48.122;11.560;2023-04-24T04:04:29;1.00;;;0.30;;
23496;SDS011;11925;48.122;11.560;2023-04-24T04:06:59;1.75;;;0.50;;
23496;SDS011;11925;48.122;11.560;2023-04-24T04:09:31;0.52;;;0.40;;
23496;SDS011;11925;48.122;11.560;2023-04-24T04:12:00;2.55;;;0.40;;
23496;SDS011;11925;48.122;11.560;2023-04-24T04:14:33;1.38;;;0.50;;
23496;SDS011;11925;48.122;11.560;2023-04-24T04:17:01;0.70;;;0.40;;
23496;SDS011;11925;48.122;11.560;2023-04-24T04:19:30;1.52;;;0.52;;
23496;SDS011;11925;48.122;11.560;2023-04-24T04:21:59;0.50;;;0.30;;
23496;SDS011;11925;48.122;11.560;2023-04-24T04:24:41;2.22;;;0.35;;
23496;SDS011;11925;48.122;11.560;2023-04-24T04:27:10;0.85;;;0.40;;
23496;SDS011;11925;48.122;11.560;2023-04-24T04:29:48;1.05;;;0.32;;
23496;SDS011;11925;48.122;11.560;2023-04-24T04:32:16;0.47;;;0.40;;
23496;SDS011;11925;48.122;11.560;2023-04-24T04:34:45;1.13;;;0.60;;
23496;SDS011;11925;48.122;11.560;2023-04-24T04:37:15;1.77;;;0.60;;
23496;SDS011;11925;48.122;11.560;2023-04-24T04:39:59;1.42;;;0.50;;
23496;SDS011;11925;48.122;11.560;2023-04-24T04:42:34;1.40;;;0.60;;
23496;SDS011;11925;48.122;11.560;2023-04-24T04:45:08;0.65;;;0.30;;
23496;SDS011;11925;48.122;11.560;2023-04-24T04:47:53;1.77;;;0.60;;
23496;SDS011;11925;48.122;11.560;2023-04-24T04:50:22;0.85;;;0.35;;
23496;SDS011;11925;48.122;11.560;2023-04-24T04:52:58;1.83;;;0.50;;
23496;SDS011;11925;48.122;11.560;2023-04-24T04:55:32;1.48;;;0.40;;
23496;SDS011;11925;48.122;11.560;2023-04-24T04:58:10;1.80;;;0.38;;
23496;SDS011;11925;48.122;11.560;2023-04-24T05:00:38;1.58;;;0.40;;
23496;SDS011;11925;48.122;11.560;2023-04-24T05:06:03;0.57;;;0.35;;
23496;SDS011;11925;48.122;11.560;2023-04-24T05:08:35;1.92;;;0.40;;
23496;SDS011;11925;48.122;11.560;2023-04-24T05:11:08;0.80;;;0.30;;
23496;SDS011;11925;48.122;11.560;2023-04-24T05:13:38;1.45;;;0.40;;
23496;SDS011;11925;48.122;11.560;2023-04-24T05:16:12;1.75;;;0.50;;
23496;SDS011;11925;48.122;11.560;2023-04-24T05:18:41;0.60;;;0.40;;
23496;SDS011;11925;48.122;11.560;2023-04-24T05:21:13;2.35;;;0.43;;
23496;SDS011;11925;48.122;11.560;2023-04-24T05:23:45;0.40;;;0.22;;
23496;SDS011;11925;48.122;11.560;2023-04-24T05:26:21;1.48;;;0.30;;
23496;SDS011;11925;48.122;11.560;2023-04-24T05:28:50;0.90;;;0.40;;
23496;SDS011;11925;48.122;11.560;2023-04-24T05:31:18;0.73;;;0.50;;
23496;SDS011;11925;48.122;11.560;2023-04-24T05:33:46;1.25;;;0.30;;
23496;SDS011;11925;48.122;11.560;2023-04-24T05:36:15;1.10;;;0.40;;
23496;SDS011;11925;48.122;11.560;2023-04-24T05:38:44;1.00;;;0.30;;
23496;SDS011;11925;48.122;11.560;2023-04-24T05:41:12;2.13;;;0.45;;
23496;SDS011;11925;48.122;11.560;2023-04-24T05:43:42;3.05;;;0.40;;
23496;SDS011;11925;48.122;11.560;2023-04-24T05:46:11;0.85;;;0.30;;
23496;SDS011;11925;48.122;11.560;2023-04-24T05:48:39;0.65;;;0.38;;
23496;SDS011;11925;48.122;11.560;2023-04-24T05:51:08;1.38;;;0.30;;
23496;SDS011;11925;48.122;11.560;2023-04-24T05:53:37;0.55;;;0.30;;
23496;SDS011;11925;48.122;11.560;2023-04-24T05:56:06;0.50;;;0.30;;
23496;SDS011;11925;48.122;11.560;2023-04-24T05:58:35;0.77;;;0.32;;
23496;SDS011;11925;48.122;11.560;2023-04-24T06:01:06;0.98;;;0.30;;
23496;SDS011;11925;48.122;11.560;2023-04-24T06:03:34;1.15;;;0.30;;
23496;SDS011;11925;48.122;11.560;2023-04-24T06:06:03;1.13;;;0.38;;
23496;SDS011;11925;48.122;11.560;2023-04-24T06:08:33;1.27;;;0.60;;
23496;SDS011;11925;48.122;11.560;2023-04-24T06:11:02;1.92;;;0.50;;
23496;SDS011;11925;48.122;11.560;2023-04-24T06:13:31;0.80;;;0.30;;
23496;SDS011;11925;48.122;11.560;2023-04-24T06:16:21;1.17;;;0.32;;
23496;SDS011;11925;48.122;11.560;2023-04-24T06:18:57;2.17;;;0.35;;
23496;SDS011;11925;48.122;11.560;2023-04-24T06:21:25;0.90;;;0.40;;
23496;SDS011;11925;48.122;11.560;2023-04-24T06:23:54;1.50;;;0.50;;
23496;SDS011;11925;48.122;11.560;2023-04-24T06:26:24;1.20;;;0.50;;
23496;SDS011;11925;48.122;11.560;2023-04-24T06:28:53;1.08;;;0.40;;
23496;SDS011;11925;48.122;11.560;2023-04-24T06:31:23;1.08;;;0.50;;
23496;SDS011;11925;48.122;11.560;2023-04-24T06:33:53;1.73;;;0.30;;
23496;SDS011;11925;48.122;11.560;2023-04-24T06:36:21;0.60;;;0.30;;
23496;SDS011;11925;48.122;11.560;2023-04-24T06:38:49;0.90;;;0.40;;
23496;SDS011;11925;48.122;11.560;2023-04-24T06:41:18;1.00;;;0.30;;
23496;SDS011;11925;48.122;11.560;2023-04-24T06:43:46;0.82;;;0.40;;
23496;SDS011;11925;48.122;11.560;2023-04-24T06:46:14;0.75;;;0.30;;
23496;SDS011;11925;48.122;11.560;2023-04-24T06:48:44;0.65;;;0.38;;
23496;SDS011;11925;48.122;11.560;2023-04-24T06:51:12;2.30;;;0.30;;
23496;SDS011;11925;48.122;11.560;2023-04-24T06:53:41;0.77;;;0.30;;
23496;SDS011;11925;48.122;11.560;2023-04-24T06:56:09;1.23;;;0.30;;
23496;SDS011;11925;48.122;11.560;2023-04-24T06:58:38;1.75;;;0.30;;
23496;SDS011;11925;48.122;11.560;2023-04-24T07:01:06;0.60;;;0.20;;
23496;SDS011;11925;48.122;11.560;2023-04-24T07:03:34;0.30;;;0.20;;
23496;SDS011;11925;48.122;11.560;2023-04-24T07:06:05;0.68;;;0.28;;
23496;SDS011;11925;48.122;11.560;2023-04-24T07:08:33;0.93;;;0.20;;
23496;SDS011;11925;48.122;11.560;2023-04-24T07:11:02;0.63;;;0.20;;
23496;SDS011;11925;48.122;11.560;2023-04-24T07:13:30;0.63;;;0.20;;
23496;SDS011;11925;48.122;11.560;2023-04-24T07:15:59;0.80;;;0.30;;
23496;SDS011;11925;48.122;11.560;2023-04-24T07:18:27;3.95;;;0.30;;
23496;SDS011;11925;48.122;11.560;2023-04-24T07:20:55;3.47;;;0.30;;
23496;SDS011;11925;48.122;11.560;2023-04-24T07:23:25;1.75;;;0.30;;
23496;SDS011;11925;48.122;11.560;2023-04-24T07:25:53;1.00;;;0.40;;
23496;SDS011;11925;48.122;11.560;2023-04-24T07:28:22;1.70;;;0.50;;
23496;SDS011;11925;48.122;11.560;2023-04-24T07:30:51;0.82;;;0.32;;
23496;SDS011;11925;48.122;11.560;2023-04-24T07:33:20;2.20;;;0.45;;
23496;SDS011;11925;48.122;11.560;2023-04-24T07:35:48;0.55;;;0.32;;
23496;SDS011;11925;48.122;11.560;2023-04-24T07:38:17;0.28;;;0.28;;
23496;SDS011;11925;48.122;11.560;2023-04-24T07:40:48;0.65;;;0.35;;
23496;SDS011;11925;48.122;11.560;2023-04-24T07:43:17;1.42;;;0.30;;
23496;SDS011;11925;48.122;11.560;2023-04-24T07:45:47;1.30;;;0.20;;
23496;SDS011;11925;48.122;11.560;2023-04-24T07:48:16;0.88;;;0.32;;
23496;SDS011;11925;48.122;11.560;2023-04-24T07:50:44;1.75;;;0.50;;
23496;SDS011;11925;48.122;11.560;2023-04-24T07:53:13;1.05;;;0.30;;
23496;SDS011;11925;48.122;11.560;2023-04-24T07:55:41;1.95;;;0.40;;
23496;SDS011;11925;48.122;11.560;2023-04-24T07:58:11;1.38;;;0.32;;
23496;SDS011;11925;48.122;11.560;2023-04-24T08:00:39;1.20;;;0.60;;
23496;SDS011;11925;48.122;11.560;2023-04-24T08:03:08;1.50;;;0.73;;
23496;SDS011;11925;48.122;11.560;2023-04-24T08:05:36;2.13;;;0.77;;
23496;SDS011;11925;48.122;11.560;2023-04-24T08:08:06;1.17;;;0.43;;
23496;SDS011;11925;48.122;11.560;2023-04-24T08:10:35;0.80;;;0.40;;
23496;SDS011;11925;48.122;11.560;2023-04-24T08:13:03;1.40;;;0.47;;
23496;SDS011;11925;48.122;11.560;2023-04-24T08:15:33;1.17;;;0.32;;
23496;SDS011;11925;48.122;11.560;2023-04-24T08:18:01;1.25;;;0.40;;
23496;SDS011;11925;48.122;11.560;2023-04-24T08:20:30;2.00;;;0.35;;
23496;SDS011;11925;48.122;11.560;2023-04-24T08:22:58;0.60;;;0.30;;
23496;SDS011;11925;48.122;11.560;2023-04-24T08:25:26;1.45;;;0.43;;
23496;SDS011;11925;48.122;11.560;2023-04-24T08:27:55;0.60;;;0.40;;
23496;SDS011;11925;48.122;11.560;2023-04-24T08:30:23;1.13;;;0.30;;
23496;SDS011;11925;48.122;11.560;2023-04-24T08:32:53;0.82;;;0.30;;
23496;SDS011;11925;48.122;11.560;2023-04-24T08:35:21;1.92;;;0.20;;
23496;SDS011;11925;48.122;11.560;2023-04-24T08:37:50;0.95;;;0.38;;
23496;SDS011;11925;48.122;11.560;2023-04-24T08:40:19;0.82;;;0.25;;
23496;SDS011;11925;48.122;11.560;2023-04-24T08:42:54;1.40;;;0.30;;
23496;SDS011;11925;48.122;11.560;2023-04-24T08:45:23;1.85;;;0.30;;
23496;SDS011;11925;48.122;11.560;2023-04-24T08:47:53;2.40;;;0.50;;
23496;SDS011;11925;48.122;11.560;2023-04-24T08:50:22;2.10;;;0.50;;
23496;SDS011;11925;48.122;11.560;2023-04-24T08:52:50;1.10;;;0.50;;
23496;SDS011;11925;48.122;11.560;2023-04-24T08:55:20;1.23;;;0.40;;
23496;SDS011;11925;48.122;11.560;2023-04-24T08:57:50;1.00;;;0.75;;
23496;SDS011;11925;48.122;11.560;2023-04-24T09:03:01;1.58;;;0.90;;
23496;SDS011;11925;48.122;11.560;2023-04-24T09:05:32;2.83;;;0.90;;
23496;SDS011;11925;48.122;11.560;2023-04-24T09:08:01;4.88;;;1.88;;
23496;SDS011;11925;48.122;11.560;2023-04-24T09:10:31;2.67;;;1.63;;
23496;SDS011;11925;48.122;11.560;2023-04-24T09:13:02;3.53;;;1.80;;
23496;SDS011;11925;48.122;11.560;2023-04-24T09:15:31;2.20;;;1.50;;
23496;SDS011;11925;48.122;11.560;2023-04-24T09:18:01;2.65;;;1.27;;
23496;SDS011;11925;48.122;11.560;2023-04-24T09:20:30;3.35;;;1.20;;
23496;SDS011;11925;48.122;11.560;2023-04-24T09:28:17;2.72;;;0.75;;
23496;SDS011;11925;48.122;11.560;2023-04-24T09:30:46;2.03;;;0.75;;
23496;SDS011;11925;48.122;11.560;2023-04-24T09:33:27;1.50;;;0.80;;
23496;SDS011;11925;48.122;11.560;2023-04-24T09:35:56;1.45;;;0.50;;
23496;SDS011;11925;48.122;11.560;2023-04-24T09:38:32;1.95;;;0.75;;
23496;SDS011;11925;48.122;11.560;2023-04-24T09:41:03;1.10;;;0.70;;
23496;SDS011;11925;48.122;11.560;2023-04-24T09:43:34;0.73;;;0.50;;
23496;SDS011;11925;48.122;11.560;2023-04-24T09:46:07;1.73;;;0.60;;
23496;SDS011;11925;48.122;11.560;2023-04-24T09:48:37;2.65;;;1.00;;
23496;SDS011;11925;48.122;11.560;2023-04-24T09:51:06;2.17;;;0.80;;
23496;SDS011;11925;48.122;11.560;2023-04-24T09:53:37;2.92;;;0.90;;
23496;SDS011;11925;48.122;11.560;2023-04-24T09:56:11;1.35;;;0.77;;
23496;SDS011;11925;48.122;11.560;2023-04-24T09:58:41;1.10;;;0.75;;
23496;SDS011;11925;48.122;11.560;2023-04-24T10:01:09;0.88;;;0.73;;
23496;SDS011;11925;48.122;11.560;2023-04-24T10:03:37;1.75;;;0.68;;
23496;SDS011;11925;48.122;11.560;2023-04-24T10:06:11;2.22;;;0.80;;
23496;SDS011;11925;48.122;11.560;2023-04-24T10:11:09;1.60;;;0.70;;
23496;SDS011;11925;48.122;11.560;2023-04-24T10:13:41;1.15;;;0.82;;
23496;SDS011;11925;48.122;11.560;2023-04-24T10:16:09;1.27;;;0.90;;
23496;SDS011;11925;48.122;11.560;2023-04-24T10:18:38;2.05;;;0.90;;
23496;SDS011;11925;48.122;11.560;2023-04-24T10:21:07;1.15;;;0.85;;
23496;SDS011;11925;48.122;11.560;2023-04-24T10:23:35;2.03;;;1.00;;
23496;SDS011;11925;48.122;11.560;2023-04-24T10:26:04;1.67;;;0.90;;
23496;SDS011;11925;48.122;11.560;2023-04-24T10:28:33;2.88;;;0.93;;
23496;SDS011;11925;48.122;11.560;2023-04-24T10:31:05;2.63;;;1.30;;
23496;SDS011;11925;48.122;11.560;2023-04-24T10:33:34;1.73;;;0.82;;
23496;SDS011;11925;48.122;11.560;2023-04-24T10:36:03;2.65;;;1.23;;
23496;SDS011;11925;48.122;11.560;2023-04-24T10:38:32;3.22;;;1.50;;
23496;SDS011;11925;48.122;11.560;2023-04-24T10:41:09;4.00;;;1.25;;
23496;SDS011;11925;48.122;11.560;2023-04-24T10:43:42;2.28;;;1.30;;
23496;SDS011;11925;48.122;11.560;2023-04-24T10:46:16;2.25;;;1.20;;
23496;SDS011;11925;48.122;11.560;2023-04-24T10:48:51;2.20;;;1.10;;
23496;SDS011;11925;48.122;11.560;2023-04-24T10:51:22;2.72;;;1.05;;
23496;SDS011;11925;48.122;11.560;2023-04-24T10:53:51;3.13;;;1.20;;
23496;SDS011;11925;48.122;11.560;2023-04-24T10:56:19;1.70;;;0.80;;
23496;SDS011;11925;48.122;11.560;2023-04-24T10:58:50;2.30;;;0.80;;
23496;SDS011;11925;48.122;11.560;2023-04-24T11:01:25;1.55;;;0.70;;
23496;SDS011;11925;48.122;11.560;2023-04-24T11:03:56;1.35;;;0.75;;
23496;SDS011;11925;48.122;11.560;2023-04-24T11:06:29;0.95;;;0.57;;
23496;SDS011;11925;48.122;11.560;2023-04-24T11:09:02;2.20;;;0.70;;
23496;SDS011;11925;48.122;11.560;2023-04-24T11:11:33;1.40;;;0.60;;
23496;SDS011;11925;48.122;11.560;2023-04-24T11:14:03;2.20;;;0.50;;
23496;SDS011;11925;48.122;11.560;2023-04-24T11:16:35;1.27;;;0.93;;
23496;SDS011;11925;48.122;11.560;2023-04-24T11:19:07;0.88;;;0.50;;
23496;SDS011;11925;48.122;11.560;2023-04-24T11:21:40;0.70;;;0.50;;
23496;SDS011;11925;48.122;11.560;2023-04-24T11:24:29;1.27;;;0.50;;
23496;SDS011;11925;48.122;11.560;2023-04-24T11:26:59;0.63;;;0.50;;
23496;SDS011;11925;48.122;11.560;2023-04-24T11:29:43;1.70;;;0.50;;
23496;SDS011;11925;48.122;11.560;2023-04-24T11:32:23;2.08;;;0.90;;
23496;SDS011;11925;48.122;11.560;2023-04-24T11:34:54;1.70;;;0.80;;
23496;SDS011;11925;48.122;11.560;2023-04-24T11:37:24;2.30;;;0.82;;
23496;SDS011;11925;48.122;11.560;2023-04-24T11:39:54;1.43;;;0.80;;
23496;SDS011;11925;48.122;11.560;2023-04-24T11:42:25;1.95;;;0.70;;
23496;SDS011;11925;48.122;11.560;2023-04-24T11:44:54;2.35;;;0.80;;
23496;SDS011;11925;48.122;11.560;2023-04-24T11:47:31;3.25;;;1.05;;
23496;SDS011;11925;48.122;11.560;2023-04-24T11:50:00;2.80;;;0.98;;
23496;SDS011;11925;48.122;11.560;2023-04-24T11:52:29;2.38;;;1.00;;
23496;SDS011;11925;48.122;11.560;2023-04-24T11:54:58;1.98;;;1.13;;
23496;SDS011;11925;48.122;11.560;2023-04-24T11:57:27;2.20;;;0.90;;
23496;SDS011;11925;48.122;11.560;2023-04-24T12:00:00;2.00;;;0.93;;
23496;SDS011;11925;48.122;11.560;2023-04-24T12:02:38;1.55;;;0.80;;
23496;SDS011;11925;48.122;11.560;2023-04-24T12:05:07;1.50;;;0.73;;
23496;SDS011;11925;48.122;11.560;2023-04-24T12:07:40;1.95;;;0.73;;
23496;SDS011;11925;48.122;11.560;2023-04-24T12:10:10;1.40;;;0.70;;
23496;SDS011;11925;48.122;11.560;2023-04-24T12:12:38;2.60;;;0.70;;
23496;SDS011;11925;48.122;11.560;2023-04-24T12:15:07;3.42;;;1.10;;
23496;SDS011;11925;48.122;11.560;2023-04-24T12:17:36;0.70;;;0.55;;
23496;SDS011;11925;48.122;11.560;2023-04-24T12:20:10;1.48;;;0.60;;
23496;SDS011;11925;48.122;11.560;2023-04-24T12:22:44;1.95;;;0.73;;
23496;SDS011;11925;48.122;11.560;2023-04-24T12:25:14;1.63;;;0.98;;
23496;SDS011;11925;48.122;11.560;2023-04-24T12:27:46;1.45;;;1.02;;
23496;SDS011;11925;48.122;11.560;2023-04-24T12:30:20;1.80;;;0.90;;
23496;SDS011;11925;48.122;11.560;2023-04-24T12:32:56;2.72;;;0.80;;
23496;SDS011;11925;48.122;11.560;2023-04-24T12:35:27;2.05;;;0.80;;
23496;SDS011;11925;48.122;11.560;2023-04-24T12:38:04;2.65;;;0.80;;
23496;SDS011;11925;48.122;11.560;2023-04-24T12:40:33;1.98;;;0.90;;
23496;SDS011;11925;48.122;11.560;2023-04-24T12:43:02;2.88;;;1.00;;
23496;SDS011;11925;48.122;11.560;2023-04-24T12:45:40;7.07;;;1.00;;
23496;SDS011;11925;48.122;11.560;2023-04-24T12:48:10;3.58;;;0.88;;
23496;SDS011;11925;48.122;11.560;2023-04-24T12:50:40;5.88;;;0.90;;
23496;SDS011;11925;48.122;11.560;2023-04-24T12:55:40;3.15;;;1.00;;
23496;SDS011;11925;48.122;11.560;2023-04-24T12:58:09;1.48;;;0.80;;
23496;SDS011;11925;48.122;11.560;2023-04-24T13:00:38;1.92;;;0.80;;
23496;SDS011;11925;48.122;11.560;2023-04-24T13:03:06;1.98;;;0.73;;
23496;SDS011;11925;48.122;11.560;2023-04-24T13:05:36;1.45;;;0.88;;
23496;SDS011;11925;48.122;11.560;2023-04-24T13:08:04;3.58;;;1.10;;
23496;SDS011;11925;48.122;11.560;2023-04-24T13:10:33;1.02;;;0.80;;
23496;SDS011;11925;48.122;11.560;2023-04-24T13:13:02;2.15;;;1.15;;
23496;SDS011;11925;48.122;11.560;2023-04-24T13:15:30;2.40;;;1.00;;
23496;SDS011;11925;48.122;11.560;2023-04-24T13:17:59;3.05;;;1.20;;
23496;SDS011;11925;48.122;11.560;2023-04-24T13:20:27;1.63;;;0.90;;
23496;SDS011;11925;48.122;11.560;2023-04-24T13:22:57;1.80;;;0.95;;
23496;SDS011;11925;48.122;11.560;2023-04-24T13:25:26;3.70;;;1.00;;
23496;SDS011;11925;48.122;11.560;2023-04-24T13:27:56;2.45;;;0.88;;
23496;SDS011;11925;48.122;11.560;2023-04-24T13:30:24;2.92;;;1.20;;
23496;SDS011;11925;48.122;11.560;2023-04-24T13:32:53;2.88;;;1.23;;
23496;SDS011;11925;48.122;11.560;2023-04-24T13:35:21;2.22;;;1.23;;
23496;SDS011;11925;48.122;11.560;2023-04-24T13:37:49;2.20;;;1.25;;
23496;SDS011;11925;48.122;11.560;2023-04-24T13:40:19;3.03;;;1.20;;
23496;SDS011;11925;48.122;11.560;2023-04-24T13:42:48;2.35;;;1.30;;
23496;SDS011;11925;48.122;11.560;2023-04-24T13:45:17;2.70;;;1.73;;
23496;SDS011;11925;48.122;11.560;2023-04-24T13:47:51;2.97;;;1.42;;
23496;SDS011;11925;48.122;11.560;2023-04-24T13:50:20;1.95;;;0.95;;
23496;SDS011;11925;48.122;11.560;2023-04-24T13:52:49;2.30;;;1.20;;
23496;SDS011;11925;48.122;11.560;2023-04-24T13:55:17;1.50;;;1.00;;
23496;SDS011;11925;48.122;11.560;2023-04-24T13:57:47;2.85;;;1.30;;
23496;SDS011;11925;48.122;11.560;2023-04-24T14:00:16;2.22;;;1.05;;
23496;SDS011;11925;48.122;11.560;2023-04-24T14:02:45;2.53;;;1.13;;
23496;SDS011;11925;48.122;11.560;2023-04-24T14:05:14;1.73;;;0.90;;
23496;SDS011;11925;48.122;11.560;2023-04-24T14:07:43;2.78;;;1.33;;
23496;SDS011;11925;48.122;11.560;2023-04-24T14:10:11;1.45;;;1.00;;
23496;SDS011;11925;48.122;11.560;2023-04-24T14:12:39;1.25;;;0.85;;
23496;SDS011;11925;48.122;11.560;2023-04-24T14:15:09;2.70;;;1.20;;
23496;SDS011;11925;48.122;11.560;2023-04-24T14:20:08;2.47;;;1.10;;
23496;SDS011;11925;48.122;11.560;2023-04-24T14:22:37;4.07;;;1.40;;
23496;SDS011;11925;48.122;11.560;2023-04-24T14:25:06;2.13;;;0.88;;
23496;SDS011;11925;48.122;11.560;2023-04-24T14:27:35;3.00;;;1.38;;
23496;SDS011;11925;48.122;11.560;2023-04-24T14:30:03;1.63;;;0.85;;
23496;SDS011;11925;48.122;11.560;2023-04-24T14:32:34;2.13;;;1.15;;
23496;SDS011;11925;48.122;11.560;2023-04-24T14:35:03;2.78;;;1.20;;
23496;SDS011;11925;48.122;11.560;2023-04-24T14:37:32;2.65;;;1.10;;
23496;SDS011;11925;48.122;11.560;2023-04-24T14:40:01;2.40;;;1.27;;
23496;SDS011;11925;48.122;11.560;2023-04-24T14:42:50;5.10;;;3.05;;
23496;SDS011;11925;48.122;11.560;2023-04-24T14:45:18;4.88;;;2.45;;
23496;SDS011;11925;48.122;11.560;2023-04-24T14:47:48;3.83;;;1.92;;
23496;SDS011;11925;48.122;11.560;2023-04-24T14:50:20;2.15;;;1.27;;
23496;SDS011;11925;48.122;11.560;2023-04-24T14:52:50;3.85;;;1.30;;
23496;SDS011;11925;48.122;11.560;2023-04-24T14:55:18;2.63;;;1.08;;
23496;SDS011;11925;48.122;11.560;2023-04-24T14:57:47;2.55;;;1.20;;
23496;SDS011;11925;48.122;11.560;2023-04-24T15:00:15;3.72;;;1.20;;
23496;SDS011;11925;48.122;11.560;2023-04-24T15:02:45;2.47;;;1.30;;
23496;SDS011;11925;48.122;11.560;2023-04-24T15:05:14;1.70;;;1.02;;
23496;SDS011;11925;48.122;11.560;2023-04-24T15:07:43;3.50;;;1.30;;
23496;SDS011;11925;48.122;11.560;2023-04-24T15:10:12;1.25;;;0.95;;